createdAt,value
2019-06-07T00:01:08.454Z,17.18
2019-06-07T00:05:13.301Z,17.21
2019-06-07T00:09:18.655Z,17.26
2019-06-07T00:13:20.395Z,17.32
2019-06-07T00:17:22.678Z,17.35
2019-06-07T00:22:11.994Z,17.32
2019-06-07T00:25:29.111Z,17.34
2019-06-07T00:29:31.695Z,17.38
2019-06-07T00:33:33.927Z,17.38
2019-06-07T00:37:36.201Z,17.39
2019-06-07T00:41:39.022Z,17.31
2019-06-07T00:45:41.516Z,17.24
2019-06-07T00:49:43.677Z,17.19
2019-06-07T00:53:46.243Z,17.09
2019-06-07T00:57:48.447Z,17.08
2019-06-07T01:01:51.133Z,17.11
2019-06-07T01:05:53.554Z,17.04
2019-06-07T01:09:55.894Z,16.98
2019-06-07T01:13:58.293Z,16.94
2019-06-07T01:18:33.782Z,16.94
2019-06-07T01:22:04.833Z,16.83
2019-06-07T01:26:07.282Z,16.76
2019-06-07T01:30:11.114Z,16.69
2019-06-07T01:34:13.375Z,16.66
2019-06-07T01:38:17.216Z,16.60
2019-06-07T01:42:20.379Z,16.60
2019-06-07T01:46:26.663Z,16.59
2019-06-07T01:50:27.325Z,16.55
2019-06-07T01:58:33.543Z,16.54
2019-06-07T02:02:35.804Z,16.54
2019-06-07T02:06:38.128Z,16.55
2019-06-07T02:10:40.277Z,16.60
2019-06-07T02:14:42.634Z,16.61
2019-06-07T02:19:01.036Z,16.62
2019-06-07T02:22:48.933Z,16.68
2019-06-07T02:26:51.241Z,16.76
2019-06-07T02:31:00.058Z,16.79
2019-06-07T02:34:58.294Z,16.84
2019-06-07T02:39:00.524Z,16.87
2019-06-07T02:43:04.177Z,16.91
2019-06-07T02:47:06.388Z,16.94
2019-06-07T02:51:08.534Z,16.99
2019-06-07T02:55:11.207Z,17.07
2019-06-07T02:59:13.786Z,17.13
2019-06-07T03:03:16.651Z,17.22
2019-06-07T03:07:19.533Z,17.42
2019-06-07T03:11:24.265Z,17.58
2019-06-07T03:15:35.525Z,17.64
2019-06-07T03:19:39.476Z,17.67
2019-06-07T03:23:44.114Z,17.70
2019-06-07T03:27:49.966Z,17.82
2019-06-07T03:31:50.366Z,17.92
2019-06-07T03:35:52.591Z,18.22
2019-06-07T03:39:54.735Z,18.44
2019-06-07T03:43:57.364Z,18.69
2019-06-07T03:47:59.724Z,18.90
2019-06-07T03:52:01.844Z,19.12
2019-06-07T03:56:04.289Z,19.35
2019-06-07T04:00:07.476Z,19.67
2019-06-07T04:04:09.566Z,19.80
2019-06-07T04:08:11.770Z,20.07
2019-06-07T04:12:13.899Z,20.39
2019-06-07T04:16:16.140Z,20.58
2019-06-07T04:20:18.356Z,20.82
2019-06-07T04:24:20.615Z,21.01
2019-06-07T04:28:22.646Z,21.22
2019-06-07T04:32:26.382Z,21.49
2019-06-07T04:36:47.553Z,21.70
2019-06-07T04:40:36.875Z,21.87
2019-06-07T04:44:42.626Z,22.12
2019-06-07T04:48:46.561Z,22.30
2019-06-07T04:52:48.832Z,22.57
2019-06-07T04:56:52.162Z,22.81
2019-06-07T05:01:02.592Z,22.99
2019-06-07T05:04:58.342Z,23.15
2019-06-07T05:09:00.336Z,23.37
2019-06-07T05:13:02.567Z,23.56
2019-06-07T05:17:04.806Z,23.84
2019-06-07T05:21:08.798Z,24.03
2019-06-07T05:25:11.031Z,24.19
2019-06-07T05:29:13.297Z,24.35
2019-06-07T05:33:16.453Z,24.53
2019-06-07T05:37:18.894Z,24.90
2019-06-07T05:41:21.003Z,24.90
2019-06-07T05:45:32.455Z,25.05
2019-06-07T05:49:37.909Z,25.33
2019-06-07T05:53:40.445Z,25.59
2019-06-07T05:57:48.560Z,25.85
2019-06-07T06:01:59.002Z,25.96
2019-06-07T06:05:55.258Z,26.22
2019-06-07T06:09:54.332Z,26.33
2019-06-07T06:14:06.606Z,26.62
2019-06-07T06:18:00.406Z,26.65
2019-06-07T06:22:02.438Z,26.77
2019-06-07T06:26:04.726Z,26.93
2019-06-07T06:30:08.372Z,27.15
2019-06-07T06:34:10.572Z,27.47
2019-06-07T06:38:12.705Z,27.63
2019-06-07T06:42:14.977Z,27.73
2019-06-07T06:46:37.483Z,27.77
2019-06-07T06:50:21.327Z,27.55
2019-06-07T06:54:40.325Z,27.33
2019-06-07T06:58:27.567Z,27.62
2019-06-07T07:02:29.930Z,27.85
2019-06-07T07:06:32.290Z,28.07
2019-06-07T07:10:43.109Z,28.06
2019-06-07T07:14:47.893Z,28.30
2019-06-07T07:18:52.904Z,28.46
2019-06-07T07:22:57.178Z,28.59
2019-06-07T07:26:58.691Z,28.84
2019-06-07T07:31:00.977Z,29.09
2019-06-07T07:35:03.168Z,29.17
2019-06-07T07:39:06.884Z,29.15
2019-06-07T07:43:09.161Z,29.47
2019-06-07T07:47:11.543Z,29.50
2019-06-07T07:51:13.851Z,29.51
2019-06-07T07:55:16.266Z,28.97
2019-06-07T07:59:18.497Z,29.26
2019-06-07T08:03:21.024Z,29.41
2019-06-07T08:07:23.385Z,29.29
2019-06-07T08:11:26.548Z,29.65
2019-06-07T08:15:28.902Z,29.68
2019-06-07T08:19:31.252Z,29.85
2019-06-07T08:23:33.424Z,29.96
2019-06-07T08:27:35.728Z,29.53
2019-06-07T08:31:37.987Z,29.79
2019-06-07T08:36:05.586Z,29.73
2019-06-07T08:39:44.409Z,29.34
2019-06-07T08:43:46.628Z,29.37
2019-06-07T08:47:56.589Z,29.54
2019-06-07T08:51:57.715Z,29.78
2019-06-07T08:56:02.300Z,29.40
2019-06-07T09:00:07.167Z,29.48
2019-06-07T09:04:10.510Z,29.87
2019-06-07T09:08:28.530Z,29.76
2019-06-07T09:12:13.095Z,29.55
2019-06-07T09:16:15.318Z,29.81
2019-06-07T09:20:35.660Z,29.53
2019-06-07T09:24:23.149Z,29.34
2019-06-07T09:28:25.419Z,29.50
2019-06-07T09:32:27.624Z,29.78
2019-06-07T09:36:29.837Z,29.88
2019-06-07T09:40:32.293Z,29.99
2019-06-07T09:44:34.411Z,29.62
2019-06-07T09:52:57.791Z,29.55
2019-06-07T09:56:46.326Z,29.86
2019-06-07T10:00:48.820Z,30.06
2019-06-07T10:04:51.176Z,29.76
2019-06-07T10:12:57.308Z,29.62
2019-06-07T10:17:00.820Z,29.76
2019-06-07T10:21:03.780Z,29.94
2019-06-07T10:25:08.324Z,29.85
2019-06-07T10:29:10.828Z,29.80
2019-06-07T10:33:13.064Z,30.06
2019-06-07T10:37:15.876Z,30.10
2019-06-07T10:41:18.115Z,30.36
2019-06-07T10:45:20.502Z,30.11
2019-06-07T10:49:22.724Z,30.73
2019-06-07T10:53:24.828Z,30.61
2019-06-07T10:57:27.185Z,30.64
2019-06-07T11:01:29.375Z,30.35
2019-06-07T11:05:31.493Z,30.37
2019-06-07T11:09:34.083Z,30.19
2019-06-07T11:13:36.368Z,30.31
2019-06-07T11:17:38.588Z,30.42
2019-06-07T11:21:40.634Z,29.89
2019-06-07T11:25:42.971Z,30.78
2019-06-07T11:29:45.085Z,30.89
2019-06-07T11:33:47.364Z,30.37
2019-06-07T11:37:49.648Z,29.39
2019-06-07T11:41:51.762Z,29.64
2019-06-07T11:45:54.032Z,29.18
2019-06-07T11:49:56.337Z,29.75
2019-06-07T11:53:58.504Z,30.04
2019-06-07T11:58:00.809Z,29.12
2019-06-07T12:02:03.143Z,29.05
2019-06-07T12:06:05.387Z,29.04
2019-06-07T12:10:08.544Z,29.17
2019-06-07T12:14:12.900Z,28.72
2019-06-07T12:18:15.220Z,29.16
2019-06-07T12:22:17.960Z,28.79
2019-06-07T12:26:20.688Z,28.51
2019-06-07T12:30:27.775Z,29.12
2019-06-07T12:34:27.023Z,29.54
2019-06-07T12:38:30.191Z,29.25
2019-06-07T12:42:32.616Z,29.27
2019-06-07T12:46:36.021Z,29.15
2019-06-07T12:50:43.126Z,29.21
2019-06-07T12:54:42.341Z,29.20
2019-06-07T12:58:44.532Z,29.39
2019-06-07T13:02:46.720Z,29.08
2019-06-07T13:06:48.978Z,28.77
2019-06-07T13:10:52.224Z,29.62
2019-06-07T13:14:54.561Z,29.18
2019-06-07T13:18:56.966Z,28.53
2019-06-07T13:22:59.225Z,28.42
2019-06-07T13:27:01.451Z,28.25
2019-06-07T13:31:03.602Z,28.26
2019-06-07T13:35:06.151Z,28.20
2019-06-07T13:39:08.954Z,28.31
2019-06-07T13:43:11.282Z,28.33
2019-06-07T13:47:13.428Z,28.28
2019-06-07T13:51:15.708Z,28.65
2019-06-07T13:55:19.774Z,28.62
2019-06-07T13:59:22.361Z,28.55
2019-06-07T14:03:29.305Z,28.69
2019-06-07T14:07:29.958Z,29.14
2019-06-07T14:11:49.386Z,30.26
2019-06-07T14:15:37.409Z,30.68
2019-06-07T14:19:39.567Z,30.85
2019-06-07T14:23:48.656Z,31.02
2019-06-07T14:27:45.641Z,31.56
2019-06-07T14:31:47.866Z,30.93
2019-06-07T14:35:50.015Z,31.13
2019-06-07T14:39:52.244Z,31.80
2019-06-07T14:43:54.377Z,32.63
2019-06-07T14:47:56.374Z,33.37
2019-06-07T14:51:58.390Z,33.43
2019-06-07T14:56:00.567Z,33.69
2019-06-07T15:00:10.383Z,33.80
2019-06-07T15:04:06.443Z,33.76
2019-06-07T15:08:08.593Z,33.66
2019-06-07T15:12:24.193Z,33.99
2019-06-07T15:16:14.416Z,33.91
2019-06-07T15:20:16.646Z,34.12
2019-06-07T15:24:18.571Z,33.96
2019-06-07T15:28:20.636Z,33.59
2019-06-07T15:32:23.575Z,32.23
2019-06-07T15:36:26.023Z,31.00
2019-06-07T15:40:29.028Z,31.06
2019-06-07T15:44:31.224Z,32.53
2019-06-07T15:48:33.988Z,32.79
2019-06-07T15:52:38.090Z,32.71
2019-06-07T15:56:41.326Z,31.29
2019-06-07T16:00:43.422Z,29.57
2019-06-07T16:04:45.329Z,28.68
2019-06-07T16:08:47.286Z,28.28
2019-06-07T16:12:59.495Z,28.02
2019-06-07T16:16:52.734Z,27.85
2019-06-07T16:20:54.840Z,27.64
2019-06-07T16:24:56.933Z,27.53
2019-06-07T16:28:59.140Z,27.46
2019-06-07T16:33:01.121Z,27.35
2019-06-07T16:37:03.149Z,27.30
2019-06-07T16:41:05.640Z,27.12
2019-06-07T16:45:08.950Z,27.11
2019-06-07T16:49:11.032Z,26.93
2019-06-07T16:53:13.081Z,26.89
2019-06-07T16:57:15.125Z,26.74
2019-06-07T17:01:16.960Z,26.71
2019-06-07T17:05:19.248Z,26.41
2019-06-07T17:09:21.321Z,26.32
2019-06-07T17:13:32.913Z,26.16
2019-06-07T17:17:27.371Z,26.05
2019-06-07T17:21:32.015Z,25.92
2019-06-07T17:25:33.845Z,25.77
2019-06-07T17:29:36.226Z,25.71
2019-06-07T17:33:38.166Z,25.63
2019-06-07T17:37:42.264Z,25.52
2019-06-07T17:41:56.180Z,25.53
2019-06-07T17:45:47.623Z,25.45
2019-06-07T17:49:50.044Z,25.40
2019-06-07T17:53:52.129Z,25.33
2019-06-07T17:57:53.947Z,25.07
2019-06-07T18:02:13.608Z,25.07
2019-06-07T18:06:01.383Z,24.97
2019-06-07T18:10:06.554Z,24.99
2019-06-07T18:14:11.124Z,24.86
2019-06-07T18:18:14.945Z,24.72
2019-06-07T18:22:17.329Z,24.51
2019-06-07T18:26:19.555Z,24.51
2019-06-07T18:30:21.902Z,24.19
2019-06-07T18:34:24.327Z,23.95
2019-06-07T18:38:26.692Z,23.69
2019-06-07T18:42:29.115Z,23.51
2019-06-07T18:46:31.538Z,23.29
2019-06-07T18:50:33.884Z,23.10
2019-06-07T18:54:36.103Z,22.97
2019-06-07T18:58:38.668Z,22.83
2019-06-07T19:02:44.253Z,22.69
2019-06-07T19:06:46.564Z,22.56
2019-06-07T19:10:50.707Z,22.45
2019-06-07T19:14:53.331Z,22.67
2019-06-07T19:18:55.884Z,22.71
2019-06-07T19:23:00.553Z,22.78
2019-06-07T19:27:02.861Z,22.74
2019-06-07T19:31:06.312Z,22.66
2019-06-07T19:35:09.707Z,22.43
2019-06-07T19:39:11.991Z,22.21
2019-06-07T19:43:14.237Z,22.24
2019-06-07T19:47:16.648Z,22.23
2019-06-07T19:51:20.410Z,22.29
2019-06-07T19:55:22.964Z,22.33
2019-06-07T19:59:25.491Z,22.26
2019-06-07T20:03:28.738Z,22.22
2019-06-07T20:07:31.035Z,22.22
2019-06-07T20:11:33.348Z,22.17
2019-06-07T20:15:35.655Z,22.10
2019-06-07T20:19:37.985Z,22.07
2019-06-07T20:23:40.362Z,22.00
2019-06-07T20:27:42.672Z,22.00
2019-06-07T20:31:44.807Z,21.92
2019-06-07T20:35:47.107Z,21.88
2019-06-07T20:39:49.276Z,21.86
2019-06-07T20:43:51.658Z,21.81
2019-06-07T20:47:53.815Z,21.80
2019-06-07T20:51:56.142Z,21.74
2019-06-07T20:55:58.493Z,21.67
2019-06-07T21:00:02.584Z,21.62
2019-06-07T21:04:07.326Z,21.56
2019-06-07T21:08:12.663Z,21.48
2019-06-07T21:12:13.430Z,21.45
2019-06-07T21:16:15.920Z,21.42
2019-06-07T21:20:18.172Z,21.37
2019-06-07T21:24:20.439Z,21.36
2019-06-07T21:28:22.650Z,21.31
2019-06-07T21:32:24.976Z,21.27
2019-06-07T21:36:27.191Z,21.16
2019-06-07T21:40:29.463Z,21.05
2019-06-07T21:44:31.698Z,20.99
2019-06-07T21:48:34.118Z,20.86
2019-06-07T21:52:36.270Z,20.68
2019-06-07T21:56:38.499Z,20.62
2019-06-07T22:01:09.972Z,20.52
2019-06-07T22:05:14.801Z,20.36
2019-06-07T22:09:17.150Z,20.17
2019-06-07T22:13:19.516Z,20.01
2019-06-07T22:17:21.697Z,19.88
2019-06-07T22:21:25.149Z,19.82
2019-06-07T22:25:28.806Z,19.74
2019-06-07T22:29:31.166Z,19.64
2019-06-07T22:33:33.501Z,19.45
2019-06-07T22:37:35.713Z,19.34
2019-06-07T22:41:38.039Z,19.26
2019-06-07T22:45:40.897Z,19.24
2019-06-07T22:49:43.245Z,19.13
2019-06-07T22:53:48.327Z,19.07
2019-06-07T22:57:58.366Z,18.88
2019-06-07T23:02:00.698Z,18.79
2019-06-07T23:06:02.915Z,18.77
2019-06-07T23:10:05.850Z,18.73
2019-06-07T23:14:09.179Z,18.66
2019-06-07T23:18:11.478Z,18.61
2019-06-07T23:22:13.886Z,18.58
2019-06-07T23:26:16.412Z,18.58
2019-06-07T23:30:21.694Z,18.50
2019-06-07T23:34:24.242Z,18.38
2019-06-07T23:38:26.816Z,18.30
2019-06-07T23:42:29.325Z,18.23
2019-06-07T23:46:31.429Z,18.10
2019-06-07T23:50:33.648Z,17.97
2019-06-07T23:54:36.008Z,17.89
2019-06-07T23:58:38.357Z,17.79
